Time;durP1;ratioP1;P1;durP2;ratioP2;P2;SDS_P1;SDS_P2;PMS_P1;PMS_P2;Temp;Humidity;BMP_temperature;BMP_pressure;BME280_temperature;BME280_humidity;BME280_pressure;Samples;Min_cycle;Max_cycle;Signal;HPM_P1;HPM_P2
2023/08/17 00:00:18;;;;;;;0.05;0.05;;;;;;;20.12;85.19;97755.56;5051095;28;20045;-70
2023/08/17 00:02:45;;;;;;;0.10;0.10;;;;;;;20.21;85.16;97755.13;5051106;28;20037;-68
2023/08/17 00:05:13;;;;;;;0.10;0.10;;;;;;;20.21;85.18;97745.09;5052347;28;20101;-67
2023/08/17 00:07:41;;;;;;;0.10;0.10;;;;;;;20.30;84.26;97746.28;5052049;28;20037;-67
2023/08/17 00:10:09;;;;;;;0.10;0.10;;;;;;;20.26;83.88;97745.16;5050486;28;20537;-67
2023/08/17 00:12:37;;;;;;;0.10;0.10;;;;;;;20.22;84.15;97740.50;5046921;28;20490;-68
2023/08/17 00:15:06;;;;;;;0.10;0.10;;;;;;;20.21;83.75;97736.97;5052418;28;20284;-68
2023/08/17 00:17:35;;;;;;;0.10;0.10;;;;;;;20.17;84.30;97733.09;5051632;28;20064;-67
2023/08/17 00:20:04;;;;;;;0.10;0.10;;;;;;;20.06;84.20;97731.34;5051250;28;20090;-67
2023/08/17 00:22:32;;;;;;;0.10;0.10;;;;;;;20.03;84.33;97729.16;5050087;28;20120;-67
2023/08/17 00:25:00;;;;;;;0.10;0.10;;;;;;;20.01;84.85;97726.69;5051598;28;20052;-67
2023/08/17 00:27:28;;;;;;;0.00;0.00;;;;;;;19.98;85.23;97719.06;5052002;28;20514;-67
2023/08/17 00:29:56;;;;;;;0.08;0.08;;;;;;;20.12;84.51;97719.50;5050054;28;20482;-67
2023/08/17 00:32:26;;;;;;;0.10;0.10;;;;;;;20.00;84.83;97722.34;5048973;28;20057;-68
2023/08/17 00:34:55;;;;;;;0.10;0.10;;;;;;;20.04;84.98;97722.63;5051777;28;20040;-69
2023/08/17 00:37:22;;;;;;;0.00;0.00;;;;;;;20.05;84.58;97718.84;5051471;28;20045;-67
2023/08/17 00:39:50;;;;;;;0.10;0.10;;;;;;;20.16;84.29;97720.63;5049995;28;20060;-68
2023/08/17 00:42:18;;;;;;;0.10;0.10;;;;;;;20.18;83.98;97718.50;5047428;28;20036;-68
2023/08/17 00:44:46;;;;;;;0.10;0.10;;;;;;;20.21;83.93;97717.16;5050635;28;20049;-68
2023/08/17 00:47:15;;;;;;;0.10;0.10;;;;;;;20.16;83.51;97726.88;5051657;28;20049;-67
2023/08/17 00:49:42;;;;;;;0.20;0.20;;;;;;;20.05;83.67;97724.28;5045068;28;20049;-69
2023/08/17 00:52:11;;;;;;;0.30;0.30;;;;;;;19.89;84.62;97728.69;5044782;28;20282;-68
2023/08/17 00:54:39;;;;;;;0.15;0.15;;;;;;;19.76;84.88;97721.75;5047689;28;20055;-68
2023/08/17 00:57:08;;;;;;;0.10;0.10;;;;;;;19.67;85.79;97722.44;5045810;28;20049;-69
2023/08/17 00:59:36;;;;;;;0.10;0.10;;;;;;;19.67;86.05;97725.97;5049708;28;20055;-68
2023/08/17 01:02:04;;;;;;;0.10;0.10;;;;;;;19.81;85.12;97722.91;5046676;28;20094;-68
2023/08/17 01:04:32;;;;;;;0.10;0.10;;;;;;;19.79;84.91;97728.56;5047920;28;20045;-68
2023/08/17 01:07:00;;;;;;;0.10;0.10;;;;;;;19.76;84.30;97723.63;5048716;28;20065;-68
2023/08/17 01:09:29;;;;;;;0.10;0.10;;;;;;;19.76;84.67;97729.88;5048495;28;20060;-68
2023/08/17 01:12:05;;;;;;;0.13;0.13;;;;;;;19.78;84.17;97719.63;5049645;28;20043;-68
2023/08/17 01:14:37;;;;;;;0.00;0.00;;;;;;;19.72;84.79;97717.09;5050914;28;20047;-68
2023/08/17 01:17:11;;;;;;;0.10;0.10;;;;;;;19.75;84.37;97703.03;5049309;28;20056;-67
2023/08/17 01:19:41;;;;;;;0.00;0.00;;;;;;;19.82;83.76;97695.56;5047681;28;20064;-67
2023/08/17 01:22:12;;;;;;;0.10;0.10;;;;;;;19.72;83.98;97704.38;5047971;28;20120;-67
2023/08/17 01:24:41;;;;;;;0.20;0.20;;;;;;;19.61;84.57;97713.41;5050887;28;20106;-68
2023/08/17 01:27:09;;;;;;;0.10;0.10;;;;;;;19.45;84.80;97714.22;5046716;28;20041;-68
2023/08/17 01:29:37;;;;;;;0.10;0.10;;;;;;;19.42;84.86;97714.72;5048413;28;20040;-68
2023/08/17 01:32:08;;;;;;;0.00;0.00;;;;;;;19.43;85.20;97716.34;5048681;28;20053;-67
2023/08/17 01:34:41;;;;;;;0.20;0.20;;;;;;;19.46;85.40;97717.75;5051451;28;20037;-69
2023/08/17 01:37:11;;;;;;;0.10;0.10;;;;;;;19.51;84.81;97720.59;5050669;28;20416;-69
2023/08/17 01:39:45;;;;;;;0.10;0.10;;;;;;;19.48;84.51;97723.75;5050283;28;20041;-69
2023/08/17 01:42:13;;;;;;;0.20;0.10;;;;;;;19.45;84.61;97722.34;5048101;28;20056;-69
2023/08/17 01:44:41;;;;;;;0.10;0.10;;;;;;;19.40;85.02;97723.09;5049638;28;20041;-67
2023/08/17 01:47:09;;;;;;;0.40;0.40;;;;;;;19.34;84.97;97728.66;5049153;28;20466;-67
2023/08/17 01:49:37;;;;;;;0.10;0.10;;;;;;;19.29;85.36;97725.91;5048163;28;20140;-67
2023/08/17 01:52:05;;;;;;;0.20;0.10;;;;;;;19.27;85.14;97728.84;5048784;28;20037;-67
2023/08/17 01:54:33;;;;;;;0.10;0.10;;;;;;;19.25;85.96;97724.75;5047786;28;20044;-66
2023/08/17 01:57:02;;;;;;;0.10;0.10;;;;;;;19.40;85.30;97716.88;5045334;28;20140;-67
2023/08/17 01:59:29;;;;;;;0.10;0.10;;;;;;;19.49;84.85;97717.28;5043466;28;20068;-67
2023/08/17 02:01:57;;;;;;;0.10;0.10;;;;;;;19.56;84.65;97729.59;5046172;28;20099;-66
2023/08/17 02:04:25;;;;;;;0.20;0.20;;;;;;;19.49;84.40;97738.97;5048073;28;20525;-67
2023/08/17 02:06:53;;;;;;;0.30;0.30;;;;;;;19.33;85.55;97754.91;5049029;28;20045;-68
2023/08/17 02:09:21;;;;;;;0.13;0.13;;;;;;;19.13;86.57;97765.41;5047737;28;20053;-69
2023/08/17 02:11:51;;;;;;;0.10;0.10;;;;;;;18.89;86.99;97759.34;5047281;28;20049;-69
2023/08/17 02:14:20;;;;;;;0.00;0.00;;;;;;;18.85;87.08;97779.81;5045865;28;20075;-69
2023/08/17 02:16:48;;;;;;;0.00;0.00;;;;;;;19.03;86.70;97770.66;5048033;28;20140;-69
2023/08/17 02:19:16;;;;;;;0.10;0.10;;;;;;;19.03;86.37;97776.06;5049688;28;20394;-69
2023/08/17 02:21:44;;;;;;;0.10;0.10;;;;;;;19.04;86.81;97772.28;5047819;28;20486;-68
2023/08/17 02:24:11;;;;;;;0.20;0.20;;;;;;;19.06;86.47;97770.16;5050400;28;20041;-69
2023/08/17 02:26:39;;;;;;;0.10;0.10;;;;;;;19.12;86.53;97766.47;5047226;28;20049;-70
2023/08/17 02:29:07;;;;;;;0.10;0.10;;;;;;;19.14;86.04;97764.34;5046002;28;20047;-69
2023/08/17 02:31:36;;;;;;;0.25;0.13;;;;;;;19.21;86.21;97777.72;5046163;28;20059;-68
2023/08/17 02:34:05;;;;;;;0.10;0.10;;;;;;;19.30;85.42;97763.56;5048216;28;20045;-67
2023/08/17 02:36:33;;;;;;;0.10;0.10;;;;;;;19.21;85.47;97758.75;5048854;28;20056;-69
2023/08/17 02:39:03;;;;;;;0.10;0.10;;;;;;;19.16;85.16;97753.28;5047297;28;20049;-69
2023/08/17 02:41:32;;;;;;;0.10;0.10;;;;;;;19.11;85.24;97754.00;5047643;28;20061;-68
2023/08/17 02:44:02;;;;;;;0.03;0.03;;;;;;;19.08;85.59;97759.09;5047040;28;20486;-68
2023/08/17 02:46:29;;;;;;;0.10;0.10;;;;;;;19.05;85.51;97757.72;5047018;28;20519;-69
2023/08/17 02:48:58;;;;;;;0.10;0.10;;;;;;;19.12;86.02;97752.13;5049548;28;20041;-69
2023/08/17 02:51:26;;;;;;;0.17;0.17;;;;;;;19.22;85.66;97746.88;5048873;28;20569;-68
2023/08/17 02:53:54;;;;;;;0.03;0.03;;;;;;;19.27;85.26;97745.09;5047753;28;20049;-67
2023/08/17 02:56:22;;;;;;;0.30;0.30;;;;;;;19.37;85.30;97755.25;5049116;28;20406;-68
2023/08/17 02:58:49;;;;;;;0.10;0.10;;;;;;;19.48;85.12;97748.13;5044239;28;20045;-69
2023/08/17 03:01:17;;;;;;;0.10;0.10;;;;;;;19.52;84.42;97747.38;5047169;28;20490;-68
2023/08/17 03:03:45;;;;;;;0.10;0.10;;;;;;;19.56;84.07;97750.44;5046964;28;20037;-68
2023/08/17 03:06:14;;;;;;;0.20;0.20;;;;;;;19.51;83.62;97750.38;5050224;28;20204;-69
2023/08/17 03:08:41;;;;;;;0.10;0.10;;;;;;;19.42;84.17;97760.72;5047723;28;20567;-68
2023/08/17 03:11:11;;;;;;;0.10;0.10;;;;;;;19.39;84.59;97764.78;5047421;28;20497;-69
2023/08/17 03:13:39;;;;;;;0.20;0.20;;;;;;;19.34;84.98;97764.69;5048906;28;20444;-69
2023/08/17 03:16:07;;;;;;;0.08;0.08;;;;;;;19.36;85.10;97759.84;5048169;28;20044;-67
2023/08/17 03:18:34;;;;;;;0.10;0.10;;;;;;;19.42;85.19;97764.25;5046201;28;20115;-68
2023/08/17 03:21:02;;;;;;;0.10;0.10;;;;;;;19.46;85.02;97761.06;5052232;28;20040;-68
2023/08/17 03:23:31;;;;;;;0.08;0.08;;;;;;;19.52;85.31;97762.84;5053517;28;20044;-68
2023/08/17 03:26:00;;;;;;;0.08;0.08;;;;;;;19.58;84.92;97764.53;5054391;28;20048;-67
2023/08/17 03:28:28;;;;;;;0.00;0.00;;;;;;;19.49;84.83;97768.75;5053250;28;20132;-68
2023/08/17 03:30:56;;;;;;;0.10;0.10;;;;;;;19.49;84.97;97779.56;5053329;28;20049;-68
2023/08/17 03:33:25;;;;;;;0.08;0.08;;;;;;;19.54;85.57;97787.75;5051693;28;20048;-69
2023/08/17 03:35:52;;;;;;;0.10;0.10;;;;;;;19.63;84.88;97794.41;5055353;28;20037;-66
2023/08/17 03:38:21;;;;;;;0.10;0.10;;;;;;;19.73;84.81;97791.84;5051878;28;20045;-66
2023/08/17 03:40:50;;;;;;;0.10;0.10;;;;;;;19.82;85.02;97798.50;5053334;28;20046;-66
2023/08/17 03:43:18;;;;;;;0.00;0.00;;;;;;;19.94;84.75;97799.19;5055072;28;20041;-66
2023/08/17 03:45:47;;;;;;;0.10;0.10;;;;;;;20.00;84.64;97800.09;5052419;28;20497;-66
2023/08/17 03:48:14;;;;;;;0.10;0.10;;;;;;;20.08;84.38;97799.66;5053964;28;20045;-65
2023/08/17 03:50:42;;;;;;;0.10;0.10;;;;;;;20.05;84.64;97800.97;5052937;28;20041;-66
2023/08/17 03:53:09;;;;;;;0.00;0.00;;;;;;;20.06;84.59;97799.09;5054048;28;20056;-66
2023/08/17 03:55:37;;;;;;;0.10;0.10;;;;;;;20.08;85.02;97794.25;5052113;28;20408;-66
2023/08/17 03:58:06;;;;;;;0.10;0.10;;;;;;;20.16;85.06;97812.78;5053986;28;20045;-66
2023/08/17 04:00:34;;;;;;;0.13;0.13;;;;;;;20.16;85.09;97805.47;5051709;28;20160;-66
2023/08/17 04:03:02;;;;;;;0.20;0.10;;;;;;;20.20;84.49;97808.50;5052502;28;20056;-66
2023/08/17 04:05:29;;;;;;;0.10;0.10;;;;;;;20.21;84.44;97804.75;5049903;28;20040;-66
2023/08/17 04:08:01;;;;;;;0.10;0.10;;;;;;;20.20;84.45;97811.22;5053575;28;20053;-67
2023/08/17 04:10:29;;;;;;;;;;;;;;;20.23;84.13;97802.59;5052137;28;20047;-68
2023/08/17 04:12:57;;;;;;;0.10;0.10;;;;;;;20.22;83.88;97797.44;5054372;28;19925;-67
2023/08/17 04:15:26;;;;;;;0.10;0.10;;;;;;;20.23;83.42;97801.78;5052289;28;20051;-67
2023/08/17 04:17:53;;;;;;;0.00;0.00;;;;;;;20.15;82.90;97801.13;5055448;28;20132;-67
2023/08/17 04:20:22;;;;;;;0.10;0.10;;;;;;;20.09;82.87;97795.91;5052595;28;20053;-68
2023/08/17 04:22:50;;;;;;;0.10;0.10;;;;;;;20.12;83.05;97795.41;5050794;28;20091;-67
2023/08/17 04:25:18;;;;;;;0.10;0.10;;;;;;;20.16;82.70;97797.34;5051329;28;20608;-68
2023/08/17 04:27:45;;;;;;;0.00;0.00;;;;;;;20.20;82.47;97802.28;5054136;28;20041;-67
2023/08/17 04:30:13;;;;;;;0.00;0.00;;;;;;;20.19;82.21;97801.44;5051738;28;20049;-67
2023/08/17 04:32:52;;;;;;;0.00;0.00;;;;;;;20.25;82.12;97799.59;5049131;28;20045;-67
2023/08/17 04:35:22;;;;;;;0.10;0.10;;;;;;;20.28;82.16;97790.97;5049965;28;20045;-67
2023/08/17 04:37:49;;;;;;;0.10;0.10;;;;;;;20.33;81.89;97786.47;5052451;28;20047;-67
2023/08/17 04:40:17;;;;;;;0.10;0.10;;;;;;;20.38;81.42;97791.16;5052479;28;20401;-67
2023/08/17 04:42:45;;;;;;;0.00;0.00;;;;;;;20.39;81.46;97790.06;5050236;28;21579;-67
2023/08/17 04:45:13;;;;;;;0.10;0.10;;;;;;;20.39;81.72;97793.59;5049397;28;20502;-67
2023/08/17 04:47:44;;;;;;;0.10;0.10;;;;;;;20.41;81.79;97787.94;5049717;28;20044;-67
2023/08/17 04:50:16;;;;;;;0.10;0.10;;;;;;;20.40;81.60;97773.56;5050242;28;20041;-67
2023/08/17 04:52:44;;;;;;;0.10;0.10;;;;;;;20.39;81.38;97779.22;5049211;28;20045;-67
2023/08/17 04:55:12;;;;;;;0.10;0.10;;;;;;;20.31;81.12;97776.94;5047228;28;20056;-67
2023/08/17 04:57:40;;;;;;;0.10;0.10;;;;;;;20.29;81.01;97773.66;5046844;28;20055;-67
2023/08/17 05:00:10;;;;;;;0.17;0.17;;;;;;;20.30;81.42;97769.88;5047769;28;20047;-67
2023/08/17 05:02:39;;;;;;;0.10;0.10;;;;;;;20.37;81.07;97768.63;5048749;28;20076;-67
2023/08/17 05:05:10;;;;;;;0.10;0.10;;;;;;;20.33;80.65;97774.78;5045946;28;20037;-67
2023/08/17 05:07:39;;;;;;;0.10;0.10;;;;;;;20.30;80.85;97772.59;5047701;28;20099;-67
2023/08/17 05:10:07;;;;;;;0.10;0.10;;;;;;;20.31;80.66;97775.03;5049938;28;20049;-67
2023/08/17 05:12:38;;;;;;;0.10;0.10;;;;;;;20.32;80.33;97770.44;5045939;28;20689;-67
2023/08/17 05:15:06;;;;;;;0.20;0.20;;;;;;;20.33;80.05;97774.78;5050454;28;20054;-66
2023/08/17 05:17:37;;;;;;;0.10;0.10;;;;;;;20.34;80.12;97777.25;5050768;28;20045;-66
2023/08/17 05:20:08;;;;;;;0.10;0.10;;;;;;;20.33;79.81;97775.63;5048045;28;20057;-66
2023/08/17 05:22:36;;;;;;;0.10;0.10;;;;;;;20.31;80.13;97776.94;5047196;28;20052;-66
2023/08/17 05:25:06;;;;;;;0.10;0.10;;;;;;;20.28;79.89;97772.00;5051637;28;20040;-67
2023/08/17 05:27:36;;;;;;;0.10;0.10;;;;;;;20.29;80.30;97766.34;5045206;28;20401;-67
2023/08/17 05:30:08;;;;;;;0.20;0.20;;;;;;;20.26;80.04;97771.44;5041924;28;20514;-69
2023/08/17 05:32:36;;;;;;;0.15;0.15;;;;;;;20.20;80.18;97772.44;5044929;28;20073;-69
2023/08/17 05:35:04;;;;;;;0.10;0.10;;;;;;;20.30;79.87;97765.28;5046544;28;20449;-69
2023/08/17 05:37:31;;;;;;;0.10;0.10;;;;;;;20.37;79.33;97774.06;5048922;28;20049;-69
2023/08/17 05:39:59;;;;;;;0.00;0.00;;;;;;;20.42;79.47;97774.13;5051673;28;20048;-67
2023/08/17 05:42:28;;;;;;;0.10;0.10;;;;;;;20.44;79.07;97771.16;5049113;28;20124;-67
2023/08/17 05:44:56;;;;;;;0.10;0.10;;;;;;;20.49;78.86;97765.78;5047656;28;20045;-69
2023/08/17 05:47:23;;;;;;;0.10;0.10;;;;;;;20.50;78.91;97767.44;5049095;28;20033;-69
2023/08/17 05:49:51;;;;;;;0.20;0.10;;;;;;;20.36;78.80;97763.47;5048642;28;20068;-67
2023/08/17 05:52:19;;;;;;;0.10;0.10;;;;;;;20.42;79.10;97767.88;5047661;28;20041;-66
2023/08/17 05:54:47;;;;;;;0.10;0.10;;;;;;;20.51;78.54;97769.06;5048563;28;20045;-66
2023/08/17 05:57:14;;;;;;;0.10;0.10;;;;;;;20.56;78.35;97773.75;5050362;28;20510;-69
2023/08/17 05:59:43;;;;;;;0.10;0.10;;;;;;;20.58;78.44;97775.09;5044775;28;20041;-69
2023/08/17 06:02:11;;;;;;;0.20;0.20;;;;;;;20.60;78.51;97766.72;5048616;28;20056;-68
2023/08/17 06:04:39;;;;;;;0.10;0.10;;;;;;;20.61;78.35;97774.59;5047301;28;20047;-68
2023/08/17 06:07:06;;;;;;;0.03;0.03;;;;;;;20.59;78.20;97779.47;5050307;28;20045;-68
2023/08/17 06:09:34;;;;;;;0.10;0.10;;;;;;;20.64;78.07;97776.81;5049129;28;20047;-68
2023/08/17 06:12:02;;;;;;;0.10;0.10;;;;;;;20.73;77.90;97779.91;5049803;28;20047;-68
2023/08/17 06:14:29;;;;;;;0.10;0.10;;;;;;;20.77;78.23;97772.88;5048514;28;20041;-68
2023/08/17 06:16:58;;;;;;;0.10;0.10;;;;;;;20.80;77.89;97780.50;5049828;28;20124;-68
2023/08/17 06:19:26;;;;;;;0.10;0.10;;;;;;;20.83;77.07;97769.97;5049084;28;20041;-67
2023/08/17 06:21:53;;;;;;;0.00;0.00;;;;;;;20.90;77.22;97775.19;5047538;28;20032;-68
2023/08/17 06:24:21;;;;;;;0.10;0.10;;;;;;;20.92;77.04;97770.31;5049378;28;20068;-68
2023/08/17 06:26:49;;;;;;;0.40;0.40;;;;;;;20.94;77.01;97759.22;5049397;28;20488;-68
2023/08/17 06:29:17;;;;;;;0.10;0.10;;;;;;;20.96;76.08;97755.19;5048602;28;20037;-68
2023/08/17 06:31:45;;;;;;;0.10;0.10;;;;;;;21.01;76.18;97748.97;5049632;28;20059;-67
2023/08/17 06:34:15;;;;;;;0.03;0.03;;;;;;;21.07;76.29;97747.94;5049257;28;20053;-68
2023/08/17 06:36:42;;;;;;;0.10;0.10;;;;;;;21.04;75.23;97752.00;5050207;28;20048;-68
2023/08/17 06:39:10;;;;;;;0.10;0.10;;;;;;;21.10;75.58;97747.41;5049390;28;20040;-68
2023/08/17 06:41:37;;;;;;;0.10;0.10;;;;;;;21.17;75.21;97745.31;5048251;28;20056;-68
2023/08/17 06:44:06;;;;;;;0.10;0.10;;;;;;;21.14;75.21;97745.81;5049889;28;20045;-68
2023/08/17 06:46:34;;;;;;;0.05;0.05;;;;;;;21.21;74.88;97749.16;5046496;28;20068;-68
2023/08/17 06:49:02;;;;;;;0.10;0.10;;;;;;;21.17;74.09;97743.44;5049320;28;20079;-68
2023/08/17 06:51:31;;;;;;;0.10;0.10;;;;;;;21.26;74.62;97746.50;5047492;28;20041;-68
2023/08/17 06:53:59;;;;;;;0.10;0.10;;;;;;;21.31;74.45;97749.25;5048552;28;20048;-67
2023/08/17 06:56:27;;;;;;;0.10;0.10;;;;;;;21.38;74.14;97751.75;5047498;28;20041;-67
2023/08/17 06:58:54;;;;;;;0.00;0.00;;;;;;;21.41;73.58;97745.78;5049767;28;20119;-67
2023/08/17 07:01:22;;;;;;;0.10;0.10;;;;;;;21.47;73.58;97748.31;5045506;28;20052;-67
2023/08/17 07:03:50;;;;;;;0.10;0.10;;;;;;;21.54;73.61;97746.16;5046520;28;20037;-68
2023/08/17 07:06:17;;;;;;;0.10;0.10;;;;;;;21.56;73.69;97749.44;5046183;28;20051;-67
2023/08/17 07:08:46;;;;;;;0.10;0.10;;;;;;;21.57;73.56;97753.81;5045348;28;20059;-67
2023/08/17 07:11:14;;;;;;;0.10;0.10;;;;;;;21.68;73.27;97756.59;5046221;28;20124;-67
2023/08/17 07:13:42;;;;;;;0.00;0.00;;;;;;;21.70;72.63;97752.50;5048325;28;20041;-69
2023/08/17 07:16:10;;;;;;;0.10;0.10;;;;;;;21.75;72.85;97751.75;5044876;28;20387;-67
2023/08/17 07:18:38;;;;;;;0.10;0.10;;;;;;;21.80;72.29;97757.22;5049626;28;20040;-67
2023/08/17 07:21:05;;;;;;;0.10;0.10;;;;;;;21.90;72.48;97754.56;5046464;28;20045;-67
2023/08/17 07:23:33;;;;;;;0.00;0.00;;;;;;;21.96;72.03;97757.03;5049975;28;20099;-70
2023/08/17 07:26:02;;;;;;;0.08;0.08;;;;;;;22.15;72.11;97738.41;5049552;28;20506;-68
2023/08/17 07:28:29;;;;;;;0.03;0.03;;;;;;;22.31;70.89;97747.44;5047884;28;20044;-69
2023/08/17 07:30:57;;;;;;;0.10;0.10;;;;;;;22.50;70.75;97747.78;5047600;28;20553;-69
2023/08/17 07:33:25;;;;;;;0.10;0.10;;;;;;;22.70;69.83;97742.41;5048254;28;20056;-69
2023/08/17 07:35:54;;;;;;;0.10;0.10;;;;;;;22.90;69.09;97747.09;5049520;28;20037;-69
2023/08/17 07:38:22;;;;;;;0.00;0.00;;;;;;;23.01;68.67;97740.56;5049653;28;20135;-69
2023/08/17 07:40:49;;;;;;;0.10;0.10;;;;;;;23.13;68.07;97743.84;5046574;28;20048;-69
2023/08/17 07:43:18;;;;;;;0.10;0.10;;;;;;;23.26;67.74;97743.28;5048389;28;20044;-68
2023/08/17 07:45:46;;;;;;;0.10;0.10;;;;;;;23.35;67.59;97730.78;5049365;28;20041;-69
2023/08/17 07:48:14;;;;;;;0.00;0.00;;;;;;;23.40;67.72;97743.56;5048907;28;20085;-69
2023/08/17 07:50:41;;;;;;;0.00;0.00;;;;;;;23.54;67.47;97744.69;5048958;28;20474;-69
2023/08/17 07:53:09;;;;;;;0.00;0.00;;;;;;;23.64;67.08;97738.41;5047854;28;20502;-69
2023/08/17 07:55:37;;;;;;;0.10;0.10;;;;;;;23.79;66.57;97741.09;5048285;28;20502;-69
2023/08/17 07:58:06;;;;;;;0.10;0.10;;;;;;;23.99;66.33;97741.03;5046952;28;20099;-69
2023/08/17 08:00:35;;;;;;;0.10;0.10;;;;;;;24.20;66.08;97740.97;5048202;28;20106;-69
2023/08/17 08:03:03;;;;;;;0.00;0.00;;;;;;;24.37;64.76;97741.50;5046624;28;20065;-68
2023/08/17 08:05:31;;;;;;;0.10;0.10;;;;;;;24.57;64.69;97741.41;5048956;28;20033;-68
2023/08/17 08:07:59;;;;;;;0.10;0.10;;;;;;;24.69;63.86;97738.34;5052374;28;20098;-68
2023/08/17 08:10:28;;;;;;;0.00;0.00;;;;;;;24.77;63.54;97732.28;5053063;28;20072;-68
2023/08/17 08:12:55;;;;;;;0.00;0.00;;;;;;;24.77;63.76;97745.94;5051493;28;20490;-69
2023/08/17 08:15:23;;;;;;;0.00;0.00;;;;;;;24.97;63.51;97731.34;5053832;28;20041;-68
2023/08/17 08:17:52;;;;;;;0.00;0.00;;;;;;;25.11;63.22;97729.63;5054167;28;20414;-68
2023/08/17 08:20:21;;;;;;;0.00;0.00;;;;;;;25.18;61.86;97725.47;5051047;28;20055;-68
2023/08/17 08:22:48;;;;;;;0.00;0.00;;;;;;;24.96;62.17;97733.25;5050899;28;20041;-68
2023/08/17 08:25:16;;;;;;;0.00;0.00;;;;;;;24.95;61.95;97725.34;5050752;28;20093;-68
2023/08/17 08:27:44;;;;;;;0.00;0.00;;;;;;;25.17;62.60;97723.81;5053153;28;20642;-68
2023/08/17 08:30:12;;;;;;;0.03;0.00;;;;;;;25.17;61.90;97725.72;5052768;28;20063;-68
2023/08/17 08:32:39;;;;;;;0.30;0.30;;;;;;;25.24;61.96;97724.31;5051005;28;20714;-68
2023/08/17 08:35:09;;;;;;;0.28;0.28;;;;;;;25.51;62.09;97720.25;5052763;28;20452;-68
2023/08/17 08:37:37;;;;;;;0.00;0.00;;;;;;;25.55;60.96;97721.28;5053881;28;20041;-68
2023/08/17 08:40:12;;;;;;;0.00;0.00;;;;;;;25.36;62.17;97725.84;5056063;28;20055;-68
2023/08/17 08:42:39;;;;;;;0.00;0.00;;;;;;;25.57;61.49;97724.56;5056363;28;20068;-69
2023/08/17 08:45:08;;;;;;;0.10;0.10;;;;;;;25.65;61.46;97723.16;5059235;28;20136;-68
2023/08/17 08:47:37;;;;;;;0.10;0.10;;;;;;;25.52;61.71;97719.16;5060895;28;20041;-68
2023/08/17 08:50:06;;;;;;;0.00;0.00;;;;;;;25.53;61.64;97718.88;5055233;28;20060;-69
2023/08/17 08:52:36;;;;;;;0.00;0.00;;;;;;;25.64;61.34;97719.63;5051682;28;20051;-69
2023/08/17 08:55:12;;;;;;;0.00;0.00;;;;;;;25.67;61.37;97705.34;5051636;28;20124;-68
2023/08/17 08:57:40;;;;;;;0.00;0.00;;;;;;;25.76;61.58;97713.72;5053481;28;20037;-68
2023/08/17 09:00:09;;;;;;;0.00;0.00;;;;;;;25.90;61.31;97715.50;5054058;28;20079;-69
2023/08/17 09:02:37;;;;;;;0.20;0.20;;;;;;;25.89;60.84;97718.53;5052280;28;21331;-68
2023/08/17 09:05:06;;;;;;;0.00;0.00;;;;;;;25.94;60.46;97718.50;5052221;28;20053;-69
2023/08/17 09:07:35;;;;;;;0.15;0.00;;;;;;;25.84;60.40;97716.69;5051847;28;20045;-68
2023/08/17 09:10:04;;;;;;;0.00;0.00;;;;;;;26.03;60.70;97708.53;5051660;28;20818;-68
2023/08/17 09:12:32;;;;;;;0.10;0.10;;;;;;;26.19;60.48;97709.16;5051503;28;20052;-69
2023/08/17 09:15:07;;;;;;;0.00;0.00;;;;;;;26.29;60.06;97706.31;5051279;28;20044;-68
2023/08/17 09:17:35;;;;;;;0.03;0.03;;;;;;;26.33;60.04;97707.38;5047414;28;20049;-69
2023/08/17 09:20:04;;;;;;;0.05;0.05;;;;;;;26.53;59.21;97698.06;5050312;28;20124;-69
2023/08/17 09:22:40;;;;;;;0.00;0.00;;;;;;;26.59;58.95;97694.94;5048967;28;20033;-69
2023/08/17 09:25:08;;;;;;;0.00;0.00;;;;;;;26.77;59.01;97698.81;5049468;28;20037;-69
2023/08/17 09:27:37;;;;;;;0.00;0.00;;;;;;;26.75;58.99;97697.47;5051355;28;20041;-69
2023/08/17 09:30:06;;;;;;;0.00;0.00;;;;;;;26.75;58.90;97698.28;5050918;28;20060;-69
2023/08/17 09:32:34;;;;;;;0.05;0.00;;;;;;;26.75;58.91;97687.34;5050153;28;20053;-69
2023/08/17 09:35:03;;;;;;;0.00;0.00;;;;;;;26.92;59.25;97687.66;5051398;28;20064;-69
2023/08/17 09:37:31;;;;;;;0.00;0.00;;;;;;;27.44;58.26;97682.94;5051057;28;20065;-70
2023/08/17 09:40:00;;;;;;;0.00;0.00;;;;;;;27.66;57.36;97682.31;5052568;28;20041;-69
2023/08/17 09:42:28;;;;;;;0.00;0.00;;;;;;;27.65;57.56;97683.41;5049056;28;20081;-69
2023/08/17 09:44:56;;;;;;;0.00;0.00;;;;;;;27.80;56.63;97677.66;5052520;28;20045;-69
2023/08/17 09:47:24;;;;;;;0.00;0.00;;;;;;;28.05;56.95;97682.63;5049268;28;20125;-70
2023/08/17 09:49:53;;;;;;;0.00;0.00;;;;;;;28.20;54.69;97670.56;5050971;28;20375;-69
2023/08/17 09:52:21;;;;;;;0.05;0.05;;;;;;;28.27;54.47;97673.69;5048711;28;20052;-69
2023/08/17 09:54:49;;;;;;;0.00;0.00;;;;;;;28.56;52.02;97676.06;5050097;28;20474;-69
2023/08/17 09:57:18;;;;;;;0.00;0.00;;;;;;;28.64;52.12;97677.28;5049408;28;20139;-69
2023/08/17 09:59:51;;;;;;;0.10;0.10;;;;;;;28.60;51.83;97677.09;5049117;28;20041;-69
2023/08/17 10:02:24;;;;;;;0.10;0.10;;;;;;;28.64;52.05;97671.81;5050613;28;20052;-69
2023/08/17 10:04:54;;;;;;;0.00;0.00;;;;;;;28.67;51.74;97671.16;5050359;28;20076;-69
2023/08/17 10:07:24;;;;;;;0.05;0.05;;;;;;;28.76;52.00;97672.03;5048280;28;20478;-69
2023/08/17 10:09:57;;;;;;;0.00;0.00;;;;;;;28.89;51.41;97668.47;5046839;28;20025;-69
2023/08/17 10:12:28;;;;;;;0.00;0.00;;;;;;;29.08;51.28;97660.84;5045617;28;20068;-69
2023/08/17 10:15:00;;;;;;;0.00;0.00;;;;;;;29.41;49.42;97660.59;5048220;28;20086;-69
2023/08/17 10:17:28;;;;;;;0.00;0.00;;;;;;;29.53;49.54;97661.66;5046683;28;20128;-69
2023/08/17 10:19:59;;;;;;;0.00;0.00;;;;;;;29.51;49.82;97663.09;5046250;28;20076;-69
2023/08/17 10:22:29;;;;;;;0.00;0.00;;;;;;;29.63;50.51;97663.31;5047226;28;20048;-69
2023/08/17 10:24:59;;;;;;;0.00;0.00;;;;;;;29.62;50.04;97660.88;5049117;28;20047;-69
2023/08/17 10:27:28;;;;;;;0.00;0.00;;;;;;;29.45;51.08;97661.63;5048932;28;20049;-69
2023/08/17 10:29:56;;;;;;;0.00;0.00;;;;;;;29.32;51.06;97655.03;5045161;28;20485;-68
2023/08/17 10:32:24;;;;;;;0.00;0.00;;;;;;;29.65;49.71;97657.50;5047025;28;20442;-70
2023/08/17 10:34:53;;;;;;;0.00;0.00;;;;;;;29.87;48.94;97649.19;5046258;28;20072;-68
2023/08/17 10:37:22;;;;;;;0.15;0.00;;;;;;;29.52;49.83;97642.69;5049117;28;20049;-68
2023/08/17 10:39:49;;;;;;;0.03;0.03;;;;;;;29.72;48.06;97647.66;5044836;28;20049;-68
2023/08/17 10:42:32;;;;;;;0.00;0.00;;;;;;;30.02;48.16;97659.78;5046658;28;20072;-68
2023/08/17 10:45:01;;;;;;;0.00;0.00;;;;;;;30.15;47.28;97650.59;5047284;28;20071;-69
2023/08/17 10:47:31;;;;;;;0.03;0.03;;;;;;;30.24;46.75;97653.34;5045763;28;20047;-68
2023/08/17 10:50:06;;;;;;;0.00;0.00;;;;;;;30.22;48.00;97650.09;5046768;28;20036;-68
2023/08/17 10:52:37;;;;;;;0.00;0.00;;;;;;;30.35;46.51;97635.38;5046845;28;20410;-69
2023/08/17 10:55:06;;;;;;;0.00;0.00;;;;;;;30.55;46.32;97645.00;5047721;28;20120;-68
2023/08/17 10:57:37;;;;;;;0.00;0.00;;;;;;;30.69;46.72;97648.44;5048327;28;20041;-68
2023/08/17 11:00:16;;;;;;;0.00;0.00;;;;;;;30.62;45.45;97648.94;5048690;28;20530;-68
2023/08/17 11:02:53;;;;;;;0.00;0.00;;;;;;;31.00;45.17;97648.25;5045354;28;20033;-68
2023/08/17 11:05:42;;;;;;;0.00;0.00;;;;;;;31.04;43.75;97651.19;5046236;28;20048;-68
2023/08/17 11:08:15;;;;;;;0.00;0.00;;;;;;;31.28;44.71;97649.53;5048545;28;20505;-68
2023/08/17 11:10:48;;;;;;;0.00;0.00;;;;;;;31.14;45.26;97635.13;5048536;28;20128;-68
2023/08/17 11:13:17;;;;;;;0.00;0.00;;;;;;;31.36;44.49;97642.38;5049064;28;20041;-69
2023/08/17 11:15:48;;;;;;;0.00;0.00;;;;;;;31.36;44.18;97645.13;5048079;28;20041;-69
2023/08/17 11:18:15;;;;;;;0.00;0.00;;;;;;;31.50;43.91;97640.22;5048612;28;20037;-68
2023/08/17 11:20:43;;;;;;;0.10;0.10;;;;;;;31.34;43.68;97637.22;5047728;28;20051;-68
2023/08/17 11:23:11;;;;;;;0.00;0.00;;;;;;;31.70;43.71;97627.69;5047231;28;20041;-68
2023/08/17 11:25:39;;;;;;;0.00;0.00;;;;;;;31.90;43.30;97626.13;5046949;28;20479;-68
2023/08/17 11:28:08;;;;;;;0.10;0.10;;;;;;;31.98;42.57;97625.25;5048142;28;20128;-69
2023/08/17 11:30:38;;;;;;;0.00;0.00;;;;;;;32.19;42.39;97625.34;5049071;28;20037;-68
2023/08/17 11:33:07;;;;;;;0.00;0.00;;;;;;;32.29;41.19;97628.53;5047059;28;20053;-69
2023/08/17 11:35:35;;;;;;;0.00;0.00;;;;;;;32.29;41.45;97623.00;5047781;28;20126;-69
2023/08/17 11:38:05;;;;;;;0.00;0.00;;;;;;;32.16;41.12;97631.53;5048436;28;20487;-69
2023/08/17 11:40:36;;;;;;;0.20;0.03;;;;;;;32.31;41.91;97631.78;5048511;28;20061;-69